createdAt,value
2018-09-28T00:01:10.690Z,84.95
2018-09-28T00:03:38.504Z,84.30
2018-09-28T00:06:06.300Z,84.47
2018-09-28T00:08:34.104Z,84.73
2018-09-28T00:11:01.945Z,84.52
2018-09-28T00:13:29.508Z,85.03
2018-09-28T00:15:57.082Z,84.65
2018-09-28T00:18:24.738Z,85.08
2018-09-28T00:20:52.419Z,85.50
2018-09-28T00:23:20.001Z,85.98
2018-09-28T00:25:47.732Z,86.15
2018-09-28T00:28:15.543Z,86.61
2018-09-28T00:30:43.126Z,86.31
2018-09-28T00:33:10.652Z,86.80
2018-09-28T00:35:38.243Z,87.29
2018-09-28T00:38:05.771Z,87.66
2018-09-28T00:40:33.287Z,88.54
2018-09-28T00:43:01.528Z,87.51
2018-09-28T00:45:29.065Z,88.36
2018-09-28T00:47:56.687Z,89.31
2018-09-28T00:50:24.314Z,88.79
2018-09-28T00:52:52.089Z,88.86
2018-09-28T00:55:19.658Z,89.19
2018-09-28T00:57:47.274Z,89.79
2018-09-28T01:00:14.891Z,89.42
2018-09-28T01:02:42.697Z,89.88
2018-09-28T01:05:10.222Z,90.03
2018-09-28T01:07:37.724Z,89.88
2018-09-28T01:10:05.355Z,89.62
2018-09-28T01:12:32.956Z,89.68
2018-09-28T01:15:00.564Z,90.01
2018-09-28T01:17:28.106Z,90.09
2018-09-28T01:19:55.709Z,91.12
2018-09-28T01:22:23.393Z,90.33
2018-09-28T01:24:50.987Z,90.55
2018-09-28T01:27:18.652Z,90.67
2018-09-28T01:29:46.199Z,91.18
2018-09-28T01:32:13.765Z,91.02
2018-09-28T01:34:41.347Z,91.26
2018-09-28T01:37:08.942Z,91.20
2018-09-28T01:39:37.216Z,91.49
2018-09-28T01:42:04.757Z,91.29
2018-09-28T01:44:32.319Z,91.35
2018-09-28T01:46:59.945Z,92.09
2018-09-28T01:49:27.845Z,91.76
2018-09-28T01:51:55.444Z,91.97
2018-09-28T01:54:22.987Z,91.87
2018-09-28T01:56:51.011Z,92.14
2018-09-28T01:59:18.618Z,92.66
2018-09-28T02:01:46.115Z,91.53
2018-09-28T02:06:57.862Z,92.20
2018-09-28T02:09:25.536Z,92.77
2018-09-28T02:11:53.151Z,92.39
2018-09-28T02:14:20.700Z,92.79
2018-09-28T02:16:48.972Z,93.19
2018-09-28T02:19:16.553Z,93.38
2018-09-28T02:21:44.145Z,94.05
2018-09-28T02:24:11.711Z,94.02
2018-09-28T02:26:39.450Z,93.59
2018-09-28T02:29:07.123Z,92.98
2018-09-28T02:31:34.672Z,93.21
2018-09-28T02:34:02.235Z,94.38
2018-09-28T02:36:30.607Z,94.54
2018-09-28T02:38:58.359Z,95.09
2018-09-28T02:41:25.923Z,95.00
2018-09-28T02:43:53.633Z,94.10
2018-09-28T02:46:21.171Z,94.63
2018-09-28T02:48:48.859Z,94.41
2018-09-28T02:51:16.379Z,94.78
2018-09-28T02:53:43.921Z,95.52
2018-09-28T02:56:11.514Z,94.46
2018-09-28T02:58:39.119Z,95.25
2018-09-28T03:01:06.675Z,95.42
2018-09-28T03:03:34.300Z,95.59
2018-09-28T03:06:01.887Z,95.57
2018-09-28T03:08:29.416Z,96.08
2018-09-28T03:10:56.974Z,95.83
2018-09-28T03:13:24.552Z,96.35
2018-09-28T03:15:52.346Z,96.52
2018-09-28T03:18:19.910Z,97.62
2018-09-28T03:20:47.445Z,97.04
2018-09-28T03:23:15.105Z,96.86
2018-09-28T03:25:42.710Z,96.73
2018-09-28T03:28:10.208Z,97.54
2018-09-28T03:30:37.775Z,97.48
2018-09-28T03:33:05.355Z,98.42
2018-09-28T03:35:32.926Z,98.08
2018-09-28T03:38:00.679Z,97.86
2018-09-28T03:40:28.317Z,96.92
2018-09-28T03:42:55.953Z,97.48
2018-09-28T03:45:23.620Z,97.86
2018-09-28T03:47:51.210Z,98.05
2018-09-28T03:50:19.052Z,97.67
2018-09-28T03:52:46.785Z,98.56
2018-09-28T03:55:14.646Z,97.97
2018-09-28T03:57:42.314Z,98.41
2018-09-28T04:00:12.032Z,98.35
2018-09-28T04:02:40.614Z,98.00
2018-09-28T04:05:08.190Z,98.77
2018-09-28T04:07:35.980Z,98.71
2018-09-28T04:10:03.555Z,98.91
2018-09-28T04:12:31.179Z,98.07
2018-09-28T04:14:58.882Z,98.51
2018-09-28T04:17:26.542Z,97.81
2018-09-28T04:19:54.218Z,98.74
2018-09-28T04:22:21.782Z,98.72
2018-09-28T04:24:49.365Z,97.87
2018-09-28T04:27:17.311Z,98.23
2018-09-28T04:29:44.940Z,98.77
2018-09-28T04:32:12.504Z,100.00
2018-09-28T04:34:40.099Z,100.00
2018-09-28T04:37:07.667Z,100.00
2018-09-28T04:39:35.227Z,95.00
2018-09-28T04:42:02.989Z,88.29
2018-09-28T04:44:30.515Z,92.04
2018-09-28T04:46:58.116Z,79.82
2018-09-28T04:49:25.989Z,83.60
2018-09-28T04:51:53.557Z,75.77
2018-09-28T04:54:21.087Z,80.44
2018-09-28T04:56:48.639Z,76.06
2018-09-28T04:59:16.205Z,68.82
2018-09-28T05:01:43.918Z,71.82
2018-09-28T05:04:11.472Z,74.64
2018-09-28T05:06:39.098Z,65.88
2018-09-28T05:09:08.306Z,70.09
2018-09-28T05:11:35.918Z,70.71
2018-09-28T05:14:03.473Z,75.26
2018-09-28T05:16:30.972Z,79.52
2018-09-28T05:18:58.505Z,82.92
2018-09-28T05:21:26.060Z,98.80
2018-09-28T05:23:53.815Z,82.58
2018-09-28T05:26:21.489Z,67.78
2018-09-28T05:28:49.021Z,72.00
2018-09-28T05:31:16.708Z,76.50
2018-09-28T05:33:44.915Z,91.08
2018-09-28T05:36:12.646Z,74.81
2018-09-28T05:38:40.512Z,77.77
2018-09-28T05:41:08.310Z,78.39
2018-09-28T05:43:35.996Z,79.91
2018-09-28T05:46:03.522Z,84.12
2018-09-28T05:48:31.082Z,82.06
2018-09-28T05:50:58.845Z,81.79
2018-09-28T05:53:26.414Z,85.02
2018-09-28T05:55:55.419Z,87.17
2018-09-28T05:58:29.190Z,86.23
2018-09-28T06:01:02.061Z,88.52
2018-09-28T06:03:29.590Z,93.50
2018-09-28T06:06:02.113Z,89.77
2018-09-28T06:08:29.886Z,89.79
2018-09-28T06:10:57.545Z,89.65
2018-09-28T06:13:25.199Z,89.79
2018-09-28T06:15:53.065Z,90.17
2018-09-28T06:18:21.062Z,86.71
2018-09-28T06:20:48.760Z,85.41
2018-09-28T06:23:16.529Z,85.46
2018-09-28T06:25:44.347Z,87.36
2018-09-28T06:28:12.420Z,84.56
2018-09-28T06:30:40.020Z,87.73
2018-09-28T06:33:07.793Z,83.23
2018-09-28T06:35:35.362Z,84.70
2018-09-28T06:38:02.917Z,82.94
2018-09-28T06:40:30.623Z,82.75
2018-09-28T06:42:58.333Z,85.71
2018-09-28T06:45:25.907Z,85.24
2018-09-28T06:47:53.846Z,82.37
2018-09-28T06:50:21.313Z,79.13
2018-09-28T06:52:49.779Z,77.70
2018-09-28T06:55:17.528Z,80.57
2018-09-28T06:57:45.081Z,79.08
2018-09-28T07:00:12.644Z,91.31
2018-09-28T07:02:40.223Z,67.53
2018-09-28T07:05:08.175Z,66.37
2018-09-28T07:07:35.780Z,67.86
2018-09-28T07:10:03.448Z,69.46
2018-09-28T07:12:30.978Z,70.60
2018-09-28T07:14:58.685Z,71.04
2018-09-28T07:17:26.353Z,71.74
2018-09-28T07:19:53.890Z,71.17
2018-09-28T07:22:21.634Z,72.11
2018-09-28T07:24:49.221Z,70.91
2018-09-28T07:27:16.713Z,69.67
2018-09-28T07:29:44.346Z,69.38
2018-09-28T07:32:11.990Z,70.27
2018-09-28T07:34:39.657Z,68.69
2018-09-28T07:37:07.556Z,67.56
2018-09-28T07:39:35.030Z,68.86
2018-09-28T07:42:02.780Z,68.22
2018-09-28T07:44:30.318Z,67.35
2018-09-28T07:46:58.021Z,65.49
2018-09-28T07:49:25.667Z,65.00
2018-09-28T07:51:53.270Z,64.61
2018-09-28T07:54:20.967Z,64.45
2018-09-28T07:56:48.529Z,64.61
2018-09-28T07:59:16.217Z,62.52
2018-09-28T08:01:45.374Z,64.77
2018-09-28T08:04:13.388Z,63.74
2018-09-28T08:06:41.007Z,62.65
2018-09-28T08:09:09.647Z,62.13
2018-09-28T08:11:37.403Z,62.96
2018-09-28T08:14:10.160Z,60.33
2018-09-28T08:16:39.027Z,60.10
2018-09-28T08:19:06.657Z,60.72
2018-09-28T08:21:34.257Z,59.43
2018-09-28T08:24:02.038Z,58.14
2018-09-28T08:26:29.703Z,59.44
2018-09-28T08:28:57.263Z,58.62
2018-09-28T08:31:24.848Z,58.37
2018-09-28T08:33:52.373Z,57.86
2018-09-28T08:36:20.046Z,59.40
2018-09-28T08:38:47.535Z,57.33
2018-09-28T08:41:15.086Z,57.56
2018-09-28T08:43:42.710Z,57.71
2018-09-28T08:46:10.356Z,57.13
2018-09-28T08:48:37.888Z,56.16
2018-09-28T08:51:05.698Z,55.76
2018-09-28T08:53:33.255Z,56.16
2018-09-28T08:56:01.072Z,55.53
2018-09-28T08:58:28.660Z,55.59
2018-09-28T09:00:56.351Z,55.23
2018-09-28T09:03:23.920Z,54.23
2018-09-28T09:05:51.414Z,54.50
2018-09-28T09:08:19.017Z,54.87
2018-09-28T09:10:47.300Z,54.47
2018-09-28T09:13:15.026Z,55.45
2018-09-28T09:15:42.696Z,54.85
2018-09-28T09:18:10.327Z,53.35
2018-09-28T09:20:37.793Z,53.25
2018-09-28T09:23:05.515Z,52.44
2018-09-28T09:25:33.131Z,51.95
2018-09-28T09:28:00.891Z,52.53
2018-09-28T09:30:28.535Z,51.76
2018-09-28T09:32:56.068Z,51.25
2018-09-28T09:35:23.764Z,51.83
2018-09-28T09:37:51.367Z,52.28
2018-09-28T09:40:19.016Z,56.00
2018-09-28T09:42:46.721Z,51.76
2018-09-28T09:45:14.151Z,52.52
2018-09-28T09:47:41.741Z,50.39
2018-09-28T09:50:09.459Z,50.26
2018-09-28T09:52:37.164Z,50.50
2018-09-28T09:55:05.415Z,49.77
2018-09-28T09:57:33.023Z,50.77
2018-09-28T10:00:00.666Z,50.33
2018-09-28T10:02:33.449Z,50.31
2018-09-28T10:05:01.259Z,49.15
2018-09-28T10:07:28.907Z,50.26
2018-09-28T10:09:56.608Z,49.72
2018-09-28T10:12:24.655Z,49.03
2018-09-28T10:14:52.233Z,49.02
2018-09-28T10:17:19.786Z,48.04
2018-09-28T10:19:47.406Z,49.02
2018-09-28T10:22:15.061Z,48.35
2018-09-28T10:24:42.598Z,48.71
2018-09-28T10:27:10.129Z,47.94
2018-09-28T10:29:37.688Z,47.93
2018-09-28T10:32:05.366Z,47.81
2018-09-28T10:34:33.092Z,47.71
2018-09-28T10:37:00.619Z,48.49
2018-09-28T10:39:28.253Z,48.03
2018-09-28T10:41:55.700Z,48.81
2018-09-28T10:44:23.264Z,47.02
2018-09-28T10:46:50.911Z,46.57
2018-09-28T10:49:18.888Z,47.08
2018-09-28T10:51:47.050Z,46.28
2018-09-28T10:54:14.605Z,46.73
2018-09-28T10:56:42.351Z,46.18
2018-09-28T10:59:10.063Z,47.23
2018-09-28T11:01:38.130Z,46.63
2018-09-28T11:04:05.736Z,46.65
2018-09-28T11:06:33.237Z,46.29
2018-09-28T11:09:00.903Z,45.07
2018-09-28T11:11:28.480Z,46.74
2018-09-28T11:13:56.122Z,45.64
2018-09-28T11:16:23.670Z,46.71
2018-09-28T11:18:51.262Z,44.66
2018-09-28T11:21:18.909Z,47.80
2018-09-28T11:23:46.619Z,44.46
2018-09-28T11:26:14.729Z,43.60
2018-09-28T11:28:42.291Z,43.00
2018-09-28T11:31:09.949Z,42.10
2018-09-28T11:33:37.504Z,41.34
2018-09-28T11:36:05.223Z,40.62
2018-09-28T11:38:32.939Z,39.83
2018-09-28T11:41:00.550Z,40.07
2018-09-28T11:43:28.129Z,39.55
2018-09-28T11:45:55.680Z,39.80
2018-09-28T11:48:23.300Z,36.29
2018-09-28T11:50:51.491Z,36.14
2018-09-28T11:53:19.432Z,35.35
2018-09-28T11:55:47.087Z,34.40
2018-09-28T11:58:14.661Z,33.28
2018-09-28T12:00:42.230Z,31.96
2018-09-28T12:03:10.414Z,33.11
2018-09-28T12:05:38.509Z,30.90
2018-09-28T12:08:06.076Z,31.17
2018-09-28T12:10:33.684Z,29.48
2018-09-28T12:13:01.334Z,30.49
2018-09-28T12:15:28.958Z,28.07
2018-09-28T12:17:56.560Z,28.06
2018-09-28T12:20:24.095Z,26.61
2018-09-28T12:22:51.621Z,26.74
2018-09-28T12:25:19.439Z,27.15
2018-09-28T12:27:47.213Z,25.51
2018-09-28T12:30:14.837Z,24.10
2018-09-28T12:32:42.545Z,25.46
2018-09-28T12:35:10.584Z,24.98
2018-09-28T12:37:38.594Z,24.83
2018-09-28T12:40:07.025Z,24.58
2018-09-28T12:42:34.538Z,23.18
2018-09-28T12:45:02.384Z,22.51
2018-09-28T12:47:29.953Z,22.21
2018-09-28T12:49:57.594Z,23.46
2018-09-28T12:52:25.385Z,22.71
2018-09-28T12:54:53.186Z,21.41
2018-09-28T12:57:20.672Z,20.29
2018-09-28T12:59:48.249Z,20.33
2018-09-28T13:02:15.976Z,19.67
2018-09-28T13:04:43.595Z,19.54
2018-09-28T13:07:11.183Z,21.63
2018-09-28T13:09:38.972Z,19.65
2018-09-28T13:12:06.732Z,19.19
2018-09-28T13:14:34.367Z,18.18
2018-09-28T13:17:02.084Z,17.51
2018-09-28T13:19:29.599Z,17.10
2018-09-28T13:21:57.202Z,17.98
2018-09-28T13:24:24.877Z,19.45
2018-09-28T13:26:52.408Z,18.88
2018-09-28T13:29:20.032Z,18.61
2018-09-28T13:31:47.743Z,19.67
2018-09-28T13:34:15.775Z,20.92
2018-09-28T13:36:43.381Z,19.56
2018-09-28T13:39:11.013Z,18.70
2018-09-28T13:41:38.960Z,21.94
2018-09-28T13:44:06.678Z,18.22
2018-09-28T13:46:34.445Z,16.96
2018-09-28T13:49:02.204Z,18.73
2018-09-28T13:51:30.599Z,16.81
2018-09-28T13:53:58.173Z,17.73
2018-09-28T13:56:25.837Z,19.37
2018-09-28T13:58:53.363Z,21.24
2018-09-28T14:01:21.027Z,17.75
2018-09-28T14:03:48.595Z,18.05
2018-09-28T14:06:16.288Z,18.19
2018-09-28T14:08:43.885Z,18.08
2018-09-28T14:11:11.456Z,18.91
2018-09-28T14:13:39.186Z,19.31
2018-09-28T14:16:06.783Z,19.56
2018-09-28T14:18:34.415Z,19.65
2018-09-28T14:21:02.032Z,21.06
2018-09-28T14:23:29.585Z,22.24
2018-09-28T14:25:57.185Z,22.85
2018-09-28T14:28:25.110Z,23.24
2018-09-28T14:30:52.681Z,23.74
2018-09-28T14:33:21.006Z,22.78
2018-09-28T14:35:49.141Z,23.37
2018-09-28T14:38:18.429Z,24.76
2018-09-28T14:40:46.191Z,23.95
2018-09-28T14:43:13.780Z,23.52
2018-09-28T14:45:41.467Z,24.55
2018-09-28T14:48:09.333Z,21.97
2018-09-28T14:50:36.962Z,21.51
2018-09-28T14:53:04.645Z,23.95
2018-09-28T14:55:32.207Z,23.37
2018-09-28T14:57:59.761Z,24.02
2018-09-28T15:00:27.410Z,22.62
2018-09-28T15:02:54.984Z,22.84
2018-09-28T15:05:22.589Z,22.98
2018-09-28T15:07:50.398Z,23.06
2018-09-28T15:10:18.219Z,23.34
2018-09-28T15:12:46.138Z,23.99
2018-09-28T15:15:13.657Z,26.26
2018-09-28T15:17:41.336Z,27.75
2018-09-28T15:20:09.023Z,32.90
2018-09-28T15:22:36.581Z,28.20
2018-09-28T15:25:04.147Z,27.86
2018-09-28T15:27:31.747Z,26.38
2018-09-28T15:29:59.442Z,26.09
2018-09-28T15:32:27.011Z,26.84
2018-09-28T15:34:54.576Z,26.80
2018-09-28T15:37:22.141Z,25.89
2018-09-28T15:39:49.872Z,26.81
2018-09-28T15:42:17.747Z,27.70
2018-09-28T15:44:45.401Z,28.82
2018-09-28T15:47:13.071Z,29.24
2018-09-28T15:49:40.676Z,30.91
2018-09-28T15:52:09.243Z,30.99
2018-09-28T15:54:36.813Z,31.02
2018-09-28T15:57:05.073Z,31.17
2018-09-28T15:59:32.633Z,31.41
2018-09-28T16:02:00.196Z,31.22
2018-09-28T16:04:27.939Z,30.70
2018-09-28T16:06:55.565Z,31.81
2018-09-28T16:09:23.152Z,32.53
2018-09-28T16:11:50.712Z,33.07
2018-09-28T16:14:18.387Z,33.71
2018-09-28T16:16:46.736Z,34.59
2018-09-28T16:19:14.287Z,36.08
2018-09-28T16:21:41.982Z,38.21
2018-09-28T16:24:09.720Z,39.27
2018-09-28T16:26:37.418Z,40.53
2018-09-28T16:29:05.033Z,41.75
2018-09-28T16:31:32.649Z,42.34
2018-09-28T16:34:00.261Z,43.34
2018-09-28T16:36:28.035Z,44.35
2018-09-28T16:38:55.585Z,44.92
2018-09-28T16:41:24.357Z,45.55
2018-09-28T16:43:52.010Z,45.33
2018-09-28T16:46:19.589Z,46.13
2018-09-28T16:48:47.184Z,45.79
2018-09-28T16:51:14.956Z,46.04
2018-09-28T16:53:42.527Z,46.55
2018-09-28T16:56:10.079Z,46.30
2018-09-28T16:58:37.855Z,46.35
2018-09-28T17:01:05.487Z,46.37
2018-09-28T17:03:33.395Z,51.53
2018-09-28T17:06:01.044Z,46.59
2018-09-28T17:08:28.721Z,46.98
2018-09-28T17:10:56.309Z,46.68
2018-09-28T17:13:24.071Z,48.79
2018-09-28T17:15:51.791Z,51.77
2018-09-28T17:18:19.380Z,47.06
2018-09-28T17:20:46.893Z,45.56
2018-09-28T17:23:14.489Z,51.20
2018-09-28T17:25:42.099Z,47.32
2018-09-28T17:28:09.667Z,47.73
2018-09-28T17:30:37.297Z,54.32
2018-09-28T17:33:04.886Z,53.80
2018-09-28T17:35:32.461Z,53.72
2018-09-28T17:38:00.120Z,53.63
2018-09-28T17:40:27.701Z,46.85
2018-09-28T17:42:55.244Z,45.37
2018-09-28T17:45:23.271Z,51.64
2018-09-28T17:47:50.796Z,52.44
2018-09-28T17:50:18.505Z,49.29
2018-09-28T17:52:46.112Z,49.36
2018-09-28T17:55:13.776Z,47.75
2018-09-28T17:57:41.369Z,47.41
2018-09-28T18:00:09.008Z,54.15
2018-09-28T18:02:36.615Z,47.86
2018-09-28T18:05:05.976Z,43.04
2018-09-28T18:07:33.759Z,43.92
2018-09-28T18:10:01.284Z,44.63
2018-09-28T18:12:28.993Z,46.00
2018-09-28T18:14:56.567Z,46.53
2018-09-28T18:17:24.226Z,47.39
2018-09-28T18:19:52.099Z,48.14
2018-09-28T18:22:20.616Z,48.70
2018-09-28T18:24:48.327Z,49.97
2018-09-28T18:27:16.108Z,62.21
2018-09-28T18:29:43.768Z,60.66
2018-09-28T18:32:11.340Z,57.16
2018-09-28T18:34:38.963Z,51.85
2018-09-28T18:37:06.771Z,51.78
2018-09-28T18:39:34.554Z,55.04
2018-09-28T18:42:02.228Z,55.24
2018-09-28T18:44:29.780Z,48.81
2018-09-28T18:46:57.481Z,50.46
2018-09-28T18:49:25.140Z,52.12
2018-09-28T18:51:52.751Z,53.96
2018-09-28T18:54:20.383Z,55.13
2018-09-28T18:56:48.030Z,55.92
2018-09-28T18:59:15.559Z,56.78
2018-09-28T19:01:43.305Z,57.17
2018-09-28T19:04:10.928Z,58.14
2018-09-28T19:06:38.590Z,59.08
2018-09-28T19:09:07.411Z,59.25
2018-09-28T19:11:34.984Z,61.42
2018-09-28T19:14:02.524Z,56.72
2018-09-28T19:16:30.165Z,57.42
2018-09-28T19:18:57.792Z,58.09
2018-09-28T19:21:25.453Z,58.39
2018-09-28T19:23:53.843Z,58.81
2018-09-28T19:26:21.526Z,59.42
2018-09-28T19:28:49.179Z,59.01
2018-09-28T19:31:16.860Z,59.09
2018-09-28T19:33:44.515Z,59.83
2018-09-28T19:36:12.135Z,60.49
2018-09-28T19:38:39.676Z,61.04
2018-09-28T19:41:07.359Z,61.87
2018-09-28T19:43:34.919Z,62.15
2018-09-28T19:46:02.700Z,63.00
2018-09-28T19:48:30.622Z,64.36
2018-09-28T19:50:58.334Z,64.40
2018-09-28T19:53:26.170Z,64.90
2018-09-28T19:55:55.227Z,64.96
2018-09-28T19:58:22.870Z,64.63
2018-09-28T20:00:50.593Z,64.51
2018-09-28T20:03:18.499Z,65.18
2018-09-28T20:05:46.171Z,65.47
2018-09-28T20:08:13.723Z,66.91
2018-09-28T20:10:41.457Z,67.24
2018-09-28T20:13:08.942Z,73.21
2018-09-28T20:15:36.595Z,73.16
2018-09-28T20:18:04.344Z,62.18
2018-09-28T20:20:31.883Z,66.51
2018-09-28T20:22:59.485Z,70.69
2018-09-28T20:25:27.605Z,74.40
2018-09-28T20:27:55.249Z,78.69
2018-09-28T20:30:23.021Z,82.42
2018-09-28T20:32:50.631Z,85.72
2018-09-28T20:35:18.156Z,86.55
2018-09-28T20:37:45.877Z,89.47
2018-09-28T20:40:13.539Z,89.12
2018-09-28T20:42:41.181Z,90.41
2018-09-28T20:45:08.761Z,91.47
2018-09-28T20:47:36.663Z,91.60
2018-09-28T20:50:04.243Z,91.74
2018-09-28T20:52:31.835Z,92.34
2018-09-28T20:54:59.418Z,92.31
2018-09-28T20:57:27.054Z,93.97
2018-09-28T20:59:54.737Z,93.92
2018-09-28T21:02:22.347Z,95.07
2018-09-28T21:04:50.103Z,94.23
2018-09-28T21:07:17.643Z,94.71
2018-09-28T21:09:45.255Z,93.57
2018-09-28T21:12:12.980Z,94.01
2018-09-28T21:14:40.527Z,95.08
2018-09-28T21:17:08.056Z,94.31
2018-09-28T21:19:35.683Z,93.08
2018-09-28T21:22:03.255Z,91.58
2018-09-28T21:24:30.826Z,90.33
2018-09-28T21:26:58.495Z,89.19
2018-09-28T21:29:26.237Z,90.32
2018-09-28T21:31:53.925Z,90.35
2018-09-28T21:34:21.686Z,91.79
2018-09-28T21:36:49.514Z,90.22
2018-09-28T21:39:17.086Z,91.77
2018-09-28T21:41:44.790Z,92.67
2018-09-28T21:44:12.343Z,93.27
2018-09-28T21:46:40.101Z,92.50
2018-09-28T21:49:07.751Z,89.38
2018-09-28T21:51:35.839Z,88.90
2018-09-28T21:54:03.517Z,90.29
2018-09-28T21:56:31.276Z,86.37
2018-09-28T21:58:59.057Z,85.60
2018-09-28T22:01:26.589Z,87.22
2018-09-28T22:03:54.204Z,84.97
2018-09-28T22:06:21.897Z,84.05
2018-09-28T22:08:49.485Z,84.22
2018-09-28T22:11:17.015Z,83.74
2018-09-28T22:13:44.726Z,82.55
2018-09-28T22:16:12.356Z,82.85
2018-09-28T22:18:40.203Z,81.03
2018-09-28T22:21:08.240Z,80.82
2018-09-28T22:23:35.835Z,79.27
2018-09-28T22:26:03.540Z,80.96
2018-09-28T22:28:31.185Z,80.05
2018-09-28T22:30:58.846Z,81.06
2018-09-28T22:33:26.492Z,80.60
2018-09-28T22:35:54.173Z,76.12
2018-09-28T22:38:21.742Z,76.63
2018-09-28T22:40:49.375Z,75.81
2018-09-28T22:43:17.052Z,70.77
2018-09-28T22:45:44.611Z,69.18
2018-09-28T22:48:12.591Z,70.61
2018-09-28T22:50:40.289Z,68.28
2018-09-28T22:53:07.927Z,66.08
2018-09-28T22:55:35.436Z,65.03
2018-09-28T22:58:03.037Z,66.42
2018-09-28T23:00:30.718Z,66.37
2018-09-28T23:02:58.302Z,64.26
2018-09-28T23:05:25.899Z,65.49
2018-09-28T23:07:53.457Z,65.54
2018-09-28T23:10:21.093Z,66.48
2018-09-28T23:12:48.677Z,65.42
2018-09-28T23:15:16.232Z,65.30
2018-09-28T23:17:43.752Z,63.22
2018-09-28T23:20:11.333Z,64.73
2018-09-28T23:22:38.911Z,64.20
2018-09-28T23:25:06.479Z,63.12
2018-09-28T23:27:34.076Z,64.92
2018-09-28T23:30:01.595Z,63.09
2018-09-28T23:32:29.145Z,62.20
2018-09-28T23:34:56.884Z,62.42
2018-09-28T23:37:24.584Z,63.51
2018-09-28T23:39:52.285Z,63.13
2018-09-28T23:42:19.843Z,61.16
2018-09-28T23:44:47.409Z,62.03
2018-09-28T23:47:14.941Z,61.37
2018-09-28T23:49:42.763Z,63.01
2018-09-28T23:52:10.377Z,60.73
2018-09-28T23:54:38.026Z,59.67
2018-09-28T23:57:05.781Z,61.65
2018-09-28T23:59:33.422Z,61.53
